FLIGHT INFORMATION
PMDG Flight Operations

PFO213

At Arrival Gate

KSAN
 KPDX
DATE: 2019-01-05
GATE: 51
GATE DEPARTURE: 16:56
TAKEOFF: 17:09
DATE: 2019-01-05
GATE:  -
LANDING: 18:57
GATE ARRIVAL: 19:00
FLIGHT DATA
Crew: TOM LANDRY
Speed: 510 kts Altitude: 39000 ft
Stage Length: 811 nm
Route: WNFLD KERNL GYWNN PADRZ HFMNN CHKNN RIDDL LANDO EHF DUCKE GALLO RENAA MOXEE PORTL TMBRS VANTZ FLOWR WIDMR ROAGE ICEAX
Block Time: 2.1 Flight Time: 1.8
Fuel Used: 40951 LB
TRACK DATA
50000 FT1000 KTAltitudeSpeed
AIRCRAFT INFORMATION
Aircraft Type: B744ER
Registration: N744ER
SELCAL:  MSN/LN: 0 / 1
Operator: PMDG FLIGHT OPERATIONS
Flights: 7 Block Time: 36.3 Flight Time: 34
Fuel Used: 763013 LB
  • DEPARTURE INFORMATION
    Date: 2019-01-05
    Airport: KSAN
    Gate: 51
    Gate Departure: 16:56
    Takeoff: 17:09
    ARRIVAL INFORMATION
    Date: 2019-01-05
    Airport: KPDX
    Gate:  -
    Landing: 18:57
    Gate Arrival: 19:00
  • FLIGHT DATA
    Crew: TOM LANDRY
    Speed: 510 kts Altitude: 39000 ft
    Stage Length: 438 nm
    Route: WNFLD KERNL GYWNN PADRZ HFMNN CHKNN RIDDL LANDO EHF DUCKE GALLO RENAA MOXEE PORTL TMBRS VANTZ FLOWR WIDMR ROAGE ICEAX
    Block Time: 2.1 Flight Time: 1.8
    Fuel Used: 40951 LB
  • AIRCRAFT INFORMATION
    Aircraft Type: B744ER
    Registration: N744ER
    SELCAL:  MSN/LN: 0 / 1
    Operator: PMDG Flight Operations
    Flights: 7 Block Time: 36.3 Flight Time: 34
    Fuel Used: 763013 LB

DATALINK LOG | Newest first | Current as of: 2020-07-14 03:44:15
LABEL ID SEQUENCE CONTENT Dn/Up
QD003919:00 29.4▼ Dn
QC571318:57▼ Dn
2U2830KPDX 051753Z 26003KT 1/4SM R10R/4500VP6000FT FG VV002 06/05 A2952 RMK AO2 SLP994 I6000 T00560050 10056 20022 58019▲ Up
2S2830KPDX▼ Dn
2U4520KPDX 051653Z 29005KT 1/4SM R10R/1200V1400FT FG BKN002 BKN130 05/04 A2955 RMK AO2 SLP004 T00500039▲ Up
2S4520KPDX▼ Dn
GA4234ADVANCED GATE ASSIGNMENTS NOT YET AVAILABLE AT THIS AIRPORT▲ Up
GR4128KPDX 18:50 HI-VAL NO▼ Dn
464044/OV DUCKE /TM 1740 /FL390 /TP B744 /SK BKN /WX BR VIS CLR /TA -22 /WV 211/134 /RM NONE▼ Dn
QB083617:08▼ Dn
QA553116:55 70.6▼ Dn
2U4554KSAN 051551Z 00000KT 10SM SCT025 OVC150 12/02 A3001 RMK AO2 SLP161 T01170017▲ Up
2S4554KSAN▼ Dn


AIRCRAFT HISTORY
FLIGHT DATE FLIGHT NUMBER ORIGIN DESTINATION ROUTE BLOCK TIME FLIGHT TIME FUEL USED (LB) PILOT
2019-03-17PFO519KCOS KATL KCOS BRK JEWLS GCK PER RZC MEM HUTCC KNSAW RUSSA KATL2.72.346193Steven Perry
2019-03-11PFO310KDEN KCOS KDEN LUFSE ADANE BRK KCOS0.50.38751Kyle Weber
2019-03-09PFO519KPDX KDEN KPDX RIVRR COSUG HADIS WHAMY IMB BOI PIH OCS GWEDO BDEEE FRNCH SKARF TOMSN ALISE DORKE ARCHY BABAA HIMOM KALME WASKL CELBI RW35L2.6244888Steven Perry
2019-01-05PFO213KSAN KPDX WNFLD KERNL GYWNN PADRZ HFMNN CHKNN RIDDL LANDO EHF DUCKE GALLO RENAA MOXEE PORTL TMBRS VANTZ FLOWR WIDMR ROAGE ICEAX2.11.840951Tom Landry
2018-12-03PFO1203KLAX KSAN SLI0.90.511934Kyle Weber
2018-08-31PFO901YSSY KLAX 13.513278467Kyle Rodgers
2018-08-31PFO831SCEL YSSY 14.514.1331830Kyle Rodgers